createdAt,value
2017-06-13T00:01:58.128Z,8.15
2017-06-13T00:04:25.762Z,5.82
2017-06-13T00:06:53.458Z,6.75
2017-06-13T00:09:21.098Z,6.30
2017-06-13T00:11:48.728Z,5.75
2017-06-13T00:14:17.106Z,9.23
2017-06-13T00:16:44.790Z,6.05
2017-06-13T00:19:12.424Z,6.62
2017-06-13T00:21:40.105Z,6.45
2017-06-13T00:24:07.757Z,6.40
2017-06-13T00:26:35.389Z,7.20
2017-06-13T00:29:03.128Z,9.15
2017-06-13T00:31:31.533Z,8.50
2017-06-13T00:33:59.233Z,6.47
2017-06-13T00:36:26.923Z,6.15
2017-06-13T00:38:54.557Z,9.57
2017-06-13T00:41:22.194Z,8.13
2017-06-13T00:43:50.646Z,7.05
2017-06-13T00:46:19.044Z,6.57
2017-06-13T00:48:46.675Z,9.23
2017-06-13T00:51:14.363Z,6.70
2017-06-13T00:53:42.002Z,10.02
2017-06-13T00:56:09.655Z,6.93
2017-06-13T00:58:37.345Z,8.77
2017-06-13T01:01:05.748Z,7.28
2017-06-13T01:03:33.436Z,9.57
2017-06-13T01:06:01.128Z,7.40
2017-06-13T01:08:28.764Z,8.52
2017-06-13T01:10:56.404Z,8.45
2017-06-13T01:13:24.849Z,8.52
2017-06-13T01:15:52.482Z,7.12
2017-06-13T01:18:20.176Z,10.73
2017-06-13T01:20:47.873Z,8.95
2017-06-13T01:23:15.504Z,6.53
2017-06-13T01:25:43.145Z,7.85
2017-06-13T01:28:10.833Z,6.00
2017-06-13T01:30:38.467Z,7.72
2017-06-13T01:33:06.105Z,8.73
2017-06-13T01:35:33.797Z,8.80
2017-06-13T01:38:02.202Z,7.82
2017-06-13T01:40:29.844Z,10.80
2017-06-13T01:42:57.538Z,8.15
2017-06-13T01:45:25.169Z,7.50
2017-06-13T01:47:52.825Z,7.80
2017-06-13T01:50:20.514Z,9.40
2017-06-13T01:52:48.156Z,11.20
2017-06-13T01:55:15.790Z,9.20
2017-06-13T01:57:43.476Z,7.25
2017-06-13T02:00:11.137Z,8.30
2017-06-13T02:02:38.814Z,7.65
2017-06-13T02:05:06.505Z,10.35
2017-06-13T02:07:34.136Z,8.45
2017-06-13T02:10:01.784Z,10.68
2017-06-13T02:12:29.475Z,8.52
2017-06-13T02:14:57.108Z,11.02
2017-06-13T02:17:24.754Z,9.65
2017-06-13T02:19:52.434Z,9.63
2017-06-13T02:22:20.071Z,11.88
2017-06-13T02:24:47.711Z,8.65
2017-06-13T02:27:15.388Z,9.68
2017-06-13T02:29:43.023Z,7.90
2017-06-13T02:32:10.649Z,9.63
2017-06-13T02:34:38.345Z,10.82
2017-06-13T02:37:05.989Z,7.87
2017-06-13T02:39:33.642Z,14.25
2017-06-13T02:42:01.330Z,9.82
2017-06-13T02:44:28.980Z,9.57
2017-06-13T02:46:56.612Z,9.30
2017-06-13T02:49:24.310Z,9.45
2017-06-13T02:51:52.713Z,9.05
2017-06-13T02:54:20.364Z,11.75
2017-06-13T02:56:48.044Z,10.65
2017-06-13T02:59:15.697Z,9.13
2017-06-13T03:01:43.344Z,12.45
2017-06-13T03:04:11.031Z,10.65
2017-06-13T03:06:38.668Z,7.95
2017-06-13T03:09:06.322Z,10.00
2017-06-13T03:11:34.012Z,12.32
2017-06-13T03:14:01.653Z,11.95
2017-06-13T03:16:29.288Z,8.52
2017-06-13T03:18:56.979Z,8.77
2017-06-13T03:21:25.382Z,9.32
2017-06-13T03:23:53.017Z,7.90
2017-06-13T03:26:20.700Z,7.82
2017-06-13T03:28:48.341Z,12.43
2017-06-13T03:31:15.988Z,10.57
2017-06-13T03:33:43.673Z,8.25
2017-06-13T03:36:11.312Z,9.43
2017-06-13T03:38:38.945Z,9.80
2017-06-13T03:41:06.645Z,11.35
2017-06-13T03:43:34.277Z,9.05
2017-06-13T03:46:01.914Z,9.40
2017-06-13T03:48:29.624Z,8.10
2017-06-13T03:50:57.264Z,11.57
2017-06-13T03:53:24.897Z,9.18
2017-06-13T03:55:52.618Z,7.95
2017-06-13T03:58:20.267Z,9.70
2017-06-13T04:00:48.666Z,8.98
2017-06-13T04:03:16.582Z,10.88
2017-06-13T04:05:44.220Z,8.20
2017-06-13T04:08:12.688Z,7.95
2017-06-13T04:10:41.142Z,9.55
2017-06-13T04:13:08.777Z,12.85
2017-06-13T04:15:36.436Z,10.63
2017-06-13T04:18:04.917Z,10.68
2017-06-13T04:20:32.564Z,11.40
2017-06-13T04:23:00.984Z,11.80
2017-06-13T04:25:28.703Z,6.95
2017-06-13T04:27:56.353Z,11.45
2017-06-13T04:30:23.988Z,10.10
2017-06-13T04:32:51.703Z,8.98
2017-06-13T04:35:20.132Z,9.75
2017-06-13T04:37:47.769Z,9.73
2017-06-13T04:40:15.458Z,9.55
2017-06-13T04:42:43.107Z,7.90
2017-06-13T04:45:10.745Z,7.50
2017-06-13T04:47:38.436Z,10.18
2017-06-13T04:50:06.072Z,12.65
2017-06-13T04:52:33.748Z,9.25
2017-06-13T04:55:01.431Z,9.48
2017-06-13T04:57:29.083Z,7.10
2017-06-13T04:59:56.815Z,9.27
2017-06-13T05:02:24.509Z,13.32
2017-06-13T05:04:52.142Z,6.97
2017-06-13T05:07:20.553Z,10.32
2017-06-13T05:09:48.233Z,7.50
2017-06-13T05:12:15.868Z,11.48
2017-06-13T05:14:43.533Z,7.70
2017-06-13T05:17:11.217Z,7.78
2017-06-13T05:19:38.868Z,8.95
2017-06-13T05:22:06.518Z,11.80
2017-06-13T05:24:34.213Z,7.85
2017-06-13T05:27:01.857Z,6.68
2017-06-13T05:29:29.497Z,8.48
2017-06-13T05:31:57.185Z,8.65
2017-06-13T05:34:24.838Z,11.30
2017-06-13T05:36:52.480Z,7.00
2017-06-13T05:39:20.187Z,9.50
2017-06-13T05:41:47.838Z,7.87
2017-06-13T05:44:15.869Z,6.45
2017-06-13T05:46:43.555Z,9.38
2017-06-13T05:49:12.002Z,10.77
2017-06-13T05:51:39.654Z,9.90
2017-06-13T05:54:07.340Z,9.30
2017-06-13T05:56:34.977Z,7.10
2017-06-13T05:59:02.623Z,8.82
2017-06-13T06:01:31.068Z,9.30
2017-06-13T06:03:58.705Z,8.60
2017-06-13T06:06:27.156Z,10.60
2017-06-13T06:08:54.844Z,12.77
2017-06-13T06:11:22.494Z,11.35
2017-06-13T06:13:50.137Z,10.63
2017-06-13T06:16:17.827Z,10.52
2017-06-13T06:18:45.489Z,8.57
2017-06-13T06:21:13.126Z,8.57
2017-06-13T06:23:40.824Z,7.22
2017-06-13T06:26:09.229Z,8.73
2017-06-13T06:28:36.875Z,5.70
2017-06-13T06:31:04.561Z,8.25
2017-06-13T06:33:32.206Z,6.68
2017-06-13T06:35:59.859Z,6.35
2017-06-13T06:38:27.556Z,6.15
2017-06-13T06:40:55.185Z,7.45
2017-06-13T06:43:22.825Z,7.32
2017-06-13T06:45:50.526Z,5.50
2017-06-13T06:48:18.165Z,8.10
2017-06-13T06:50:45.825Z,5.90
2017-06-13T06:53:13.508Z,6.20
2017-06-13T06:55:41.921Z,7.30
2017-06-13T06:58:09.569Z,10.73
2017-06-13T07:00:37.253Z,8.32
2017-06-13T07:03:05.652Z,8.82
2017-06-13T07:05:33.293Z,6.87
2017-06-13T07:08:00.971Z,7.53
2017-06-13T07:10:28.616Z,5.97
2017-06-13T07:12:56.265Z,10.73
2017-06-13T07:15:23.956Z,8.70
2017-06-13T07:17:52.379Z,4.40
2017-06-13T07:20:20.029Z,5.53
2017-06-13T07:22:47.756Z,8.40
2017-06-13T07:25:15.405Z,8.45
2017-06-13T07:27:43.051Z,6.95
2017-06-13T07:30:10.774Z,6.95
2017-06-13T07:32:38.403Z,9.13
2017-06-13T07:35:06.807Z,9.27
2017-06-13T07:37:34.500Z,6.22
2017-06-13T07:40:02.115Z,8.77
2017-06-13T07:42:29.837Z,5.95
2017-06-13T07:44:57.536Z,7.85
2017-06-13T07:47:25.157Z,7.60
2017-06-13T07:49:52.775Z,6.73
2017-06-13T07:52:20.434Z,6.10
2017-06-13T07:54:48.057Z,7.67
2017-06-13T07:57:15.759Z,4.17
2017-06-13T07:59:43.424Z,7.50
2017-06-13T08:02:11.041Z,5.80
2017-06-13T08:04:38.660Z,7.60
2017-06-13T08:07:06.334Z,3.87
2017-06-13T08:09:33.963Z,6.10
2017-06-13T08:12:01.574Z,7.43
2017-06-13T08:14:29.238Z,6.97
2017-06-13T08:16:56.903Z,5.30
2017-06-13T08:19:24.534Z,5.83
2017-06-13T08:21:52.191Z,4.77
2017-06-13T08:24:19.804Z,5.90
2017-06-13T08:26:47.428Z,7.47
2017-06-13T08:29:15.088Z,5.10
2017-06-13T08:31:42.725Z,5.87
2017-06-13T08:34:10.332Z,5.30
2017-06-13T08:36:38.007Z,4.17
2017-06-13T08:39:05.621Z,2.93
2017-06-13T08:41:33.236Z,8.13
2017-06-13T08:44:01.672Z,6.07
2017-06-13T08:46:29.291Z,6.80
2017-06-13T08:48:56.908Z,5.33
2017-06-13T08:51:24.572Z,6.70
2017-06-13T08:53:52.190Z,5.03
2017-06-13T08:56:19.796Z,6.77
2017-06-13T08:58:47.536Z,5.53
2017-06-13T09:01:15.140Z,4.83
2017-06-13T09:03:42.776Z,4.50
2017-06-13T09:06:10.458Z,4.20
2017-06-13T09:08:38.073Z,4.13
2017-06-13T09:11:05.685Z,8.63
2017-06-13T09:13:33.362Z,5.73
2017-06-13T09:16:01.748Z,4.33
2017-06-13T09:18:29.385Z,3.60
2017-06-13T09:20:57.820Z,3.87
2017-06-13T09:23:25.425Z,4.47
2017-06-13T09:25:53.036Z,5.93
2017-06-13T09:28:20.695Z,3.13
2017-06-13T09:30:48.308Z,3.70
2017-06-13T09:33:15.929Z,7.40
2017-06-13T09:35:43.601Z,5.10
2017-06-13T09:38:11.213Z,5.87
2017-06-13T09:40:38.829Z,5.40
2017-06-13T09:43:06.491Z,3.70
2017-06-13T09:45:34.105Z,2.30
2017-06-13T09:48:01.708Z,3.53
2017-06-13T09:50:29.365Z,3.60
2017-06-13T09:52:56.973Z,2.30
2017-06-13T09:55:24.594Z,2.83
2017-06-13T09:57:52.254Z,1.83
2017-06-13T10:00:19.864Z,2.70
2017-06-13T10:02:47.492Z,4.43
2017-06-13T10:05:15.152Z,3.03
2017-06-13T10:07:42.766Z,3.77
2017-06-13T10:10:10.376Z,2.57
2017-06-13T10:12:38.041Z,2.77
2017-06-13T10:15:05.648Z,3.00
2017-06-13T10:17:33.272Z,3.33
2017-06-13T10:20:01.733Z,1.95
2017-06-13T10:22:29.350Z,5.43
2017-06-13T10:24:56.980Z,3.50
2017-06-13T10:27:24.683Z,1.85
2017-06-13T10:29:53.101Z,5.82
2017-06-13T10:32:20.738Z,3.37
2017-06-13T10:34:48.425Z,3.22
2017-06-13T10:37:16.072Z,4.62
2017-06-13T10:39:43.682Z,2.83
2017-06-13T10:42:11.348Z,6.60
2017-06-13T10:44:38.964Z,5.03
2017-06-13T10:47:06.591Z,3.33
2017-06-13T10:49:34.288Z,6.17
2017-06-13T10:52:01.897Z,2.97
2017-06-13T10:54:29.512Z,3.93
2017-06-13T10:56:57.980Z,4.75
2017-06-13T10:59:25.601Z,4.83
2017-06-13T11:01:53.249Z,12.00
2017-06-13T11:04:20.919Z,5.10
2017-06-13T11:06:48.573Z,4.85
2017-06-13T11:09:16.220Z,3.85
2017-06-13T11:11:44.673Z,5.53
2017-06-13T11:14:12.325Z,4.87
2017-06-13T11:16:39.969Z,2.92
2017-06-13T11:19:08.425Z,3.30
2017-06-13T11:21:36.061Z,4.22
2017-06-13T11:24:03.691Z,5.13
2017-06-13T11:26:31.370Z,4.07
2017-06-13T11:28:58.987Z,4.07
2017-06-13T11:31:26.597Z,2.93
2017-06-13T11:33:54.261Z,4.83
2017-06-13T11:36:21.876Z,5.77
2017-06-13T11:38:49.516Z,4.57
2017-06-13T11:41:17.216Z,3.33
2017-06-13T11:43:44.823Z,3.40
2017-06-13T11:46:13.196Z,3.63
2017-06-13T11:48:40.908Z,5.60
2017-06-13T11:51:08.523Z,7.00
2017-06-13T11:53:36.144Z,6.00
2017-06-13T11:56:03.808Z,6.93
2017-06-13T11:58:31.532Z,4.87
2017-06-13T12:00:59.176Z,4.17
2017-06-13T12:03:27.612Z,3.50
2017-06-13T12:05:55.221Z,3.37
2017-06-13T12:08:22.837Z,3.23
2017-06-13T12:10:50.507Z,3.27
2017-06-13T12:13:18.120Z,5.40
2017-06-13T12:15:45.729Z,5.27
2017-06-13T12:18:13.394Z,6.20
2017-06-13T12:20:41.015Z,4.83
2017-06-13T12:23:08.659Z,3.50
2017-06-13T12:25:36.366Z,5.50
2017-06-13T12:28:04.009Z,4.07
2017-06-13T12:30:31.632Z,3.30
2017-06-13T12:32:59.303Z,3.80
2017-06-13T12:35:26.919Z,2.63
2017-06-13T12:37:54.544Z,5.00
2017-06-13T12:40:22.213Z,5.50
2017-06-13T12:42:49.825Z,2.87
2017-06-13T12:45:17.453Z,8.03
2017-06-13T12:47:45.169Z,4.10
2017-06-13T12:50:12.880Z,5.90
2017-06-13T12:52:40.505Z,3.80
2017-06-13T12:55:08.214Z,5.37
2017-06-13T12:57:35.885Z,4.30
2017-06-13T13:00:03.517Z,4.28
2017-06-13T13:02:31.208Z,7.07
2017-06-13T13:04:58.847Z,4.43
2017-06-13T13:07:26.495Z,6.62
2017-06-13T13:09:54.192Z,5.00
2017-06-13T13:12:21.813Z,4.20
2017-06-13T13:14:50.226Z,4.65
2017-06-13T13:17:17.914Z,8.63
2017-06-13T13:19:45.544Z,4.03
2017-06-13T13:22:13.178Z,6.10
2017-06-13T13:24:40.858Z,5.47
2017-06-13T13:27:08.475Z,5.43
2017-06-13T13:29:36.112Z,5.50
2017-06-13T13:32:03.779Z,4.57
2017-06-13T13:34:31.404Z,3.73
2017-06-13T13:36:59.033Z,3.20
2017-06-13T13:39:26.708Z,3.57
2017-06-13T13:41:54.344Z,3.42
2017-06-13T13:44:21.961Z,3.70
2017-06-13T13:46:49.620Z,7.57
2017-06-13T13:49:17.360Z,5.60
2017-06-13T13:51:44.978Z,3.93
2017-06-13T13:54:12.669Z,8.03
2017-06-13T13:56:40.322Z,3.63
2017-06-13T13:59:07.954Z,3.53
2017-06-13T14:01:35.654Z,3.73
2017-06-13T14:04:03.287Z,7.10
2017-06-13T14:06:30.968Z,4.12
2017-06-13T14:08:58.646Z,3.27
2017-06-13T14:11:26.280Z,3.83
2017-06-13T14:13:53.898Z,4.60
2017-06-13T14:16:21.564Z,2.90
2017-06-13T14:18:49.961Z,5.27
2017-06-13T14:21:17.602Z,4.30
2017-06-13T14:23:45.296Z,3.50
2017-06-13T14:26:12.917Z,5.03
2017-06-13T14:28:40.532Z,2.80
2017-06-13T14:31:08.217Z,3.47
2017-06-13T14:33:35.849Z,2.30
2017-06-13T14:36:03.469Z,4.43
2017-06-13T14:38:31.160Z,3.77
2017-06-13T14:40:58.786Z,2.80
2017-06-13T14:43:26.409Z,4.23
2017-06-13T14:45:54.112Z,6.00
2017-06-13T14:48:21.772Z,4.77
2017-06-13T14:50:49.400Z,2.50
2017-06-13T14:53:17.076Z,26.37
2017-06-13T14:55:44.694Z,6.13
2017-06-13T14:58:12.323Z,4.03
2017-06-13T15:00:40.021Z,6.20
2017-06-13T15:03:07.639Z,3.67
2017-06-13T15:05:35.252Z,5.97
2017-06-13T15:08:02.921Z,3.30
2017-06-13T15:10:30.561Z,5.07
2017-06-13T15:12:58.192Z,3.37
2017-06-13T15:15:25.998Z,5.63
2017-06-13T15:17:53.612Z,4.50
2017-06-13T15:20:21.236Z,3.97
2017-06-13T15:22:48.924Z,7.87
2017-06-13T15:25:16.555Z,4.07
2017-06-13T15:27:44.187Z,4.10
2017-06-13T15:30:11.856Z,4.70
2017-06-13T15:32:39.465Z,6.20
2017-06-13T15:35:07.129Z,4.80
2017-06-13T15:37:34.834Z,2.80
2017-06-13T15:40:03.223Z,4.00
2017-06-13T15:42:30.911Z,5.80
2017-06-13T15:44:58.678Z,5.13
2017-06-13T15:47:26.564Z,2.73
2017-06-13T15:49:54.310Z,5.73
2017-06-13T15:52:22.185Z,3.80
2017-06-13T15:54:49.863Z,5.43
2017-06-13T15:57:17.548Z,4.10
2017-06-13T15:59:45.226Z,3.37
2017-06-13T16:02:13.664Z,2.90
2017-06-13T16:04:41.277Z,6.50
2017-06-13T16:07:08.956Z,4.18
2017-06-13T16:09:36.649Z,2.92
2017-06-13T16:12:04.302Z,4.40
2017-06-13T16:14:32.241Z,3.53
2017-06-13T16:16:59.992Z,3.15
2017-06-13T16:19:27.640Z,3.30
2017-06-13T16:21:55.330Z,4.82
2017-06-13T16:24:22.992Z,4.70
2017-06-13T16:26:50.625Z,5.13
2017-06-13T16:29:18.296Z,3.63
2017-06-13T16:31:45.919Z,4.50
2017-06-13T16:34:13.556Z,4.20
2017-06-13T16:36:41.240Z,5.62
2017-06-13T16:39:08.858Z,5.87
2017-06-13T16:41:37.272Z,3.03
2017-06-13T16:44:04.976Z,4.25
2017-06-13T16:46:32.617Z,3.47
2017-06-13T16:49:00.249Z,4.95
2017-06-13T16:51:27.994Z,5.97
2017-06-13T16:53:55.638Z,5.40
2017-06-13T16:56:24.140Z,3.40
2017-06-13T16:58:51.850Z,6.00
2017-06-13T17:01:20.264Z,4.90
2017-06-13T17:03:47.931Z,3.37
2017-06-13T17:06:15.630Z,5.28
2017-06-13T17:08:43.327Z,3.00
2017-06-13T17:11:11.024Z,3.60
2017-06-13T17:13:38.712Z,3.42
2017-06-13T17:16:06.359Z,5.07
2017-06-13T17:18:34.962Z,3.15
2017-06-13T17:21:02.897Z,5.32
2017-06-13T17:23:30.542Z,5.03
2017-06-13T17:25:58.186Z,4.10
2017-06-13T17:28:25.894Z,3.50
2017-06-13T17:30:53.545Z,5.40
2017-06-13T17:33:21.208Z,2.50
2017-06-13T17:35:48.944Z,2.33
2017-06-13T17:38:17.051Z,2.25
2017-06-13T17:40:44.700Z,2.85
2017-06-13T17:43:12.393Z,7.85
2017-06-13T17:45:40.049Z,3.15
2017-06-13T17:48:07.701Z,3.42
2017-06-13T17:50:35.400Z,2.97
2017-06-13T17:53:03.804Z,2.65
2017-06-13T17:55:31.620Z,2.55
2017-06-13T17:57:59.324Z,5.28
2017-06-13T18:00:26.968Z,3.53
2017-06-13T18:02:54.613Z,3.15
2017-06-13T18:05:22.311Z,2.35
2017-06-13T18:07:49.947Z,4.25
2017-06-13T18:10:17.597Z,4.60
2017-06-13T18:12:46.053Z,2.80
2017-06-13T18:15:13.745Z,5.28
2017-06-13T18:17:41.389Z,2.25
2017-06-13T18:20:09.095Z,7.15
2017-06-13T18:22:36.775Z,3.03
2017-06-13T18:25:04.441Z,2.20
2017-06-13T18:27:32.137Z,4.25
2017-06-13T18:30:00.576Z,3.45
2017-06-13T18:32:28.279Z,4.12
2017-06-13T18:34:55.981Z,2.00
2017-06-13T18:37:23.642Z,3.72
2017-06-13T18:39:52.046Z,3.35
2017-06-13T18:42:19.736Z,3.10
2017-06-13T18:44:47.384Z,3.87
2017-06-13T18:47:15.052Z,2.37
2017-06-13T18:49:43.502Z,5.07
2017-06-13T18:52:11.146Z,2.65
2017-06-13T18:54:38.913Z,2.58
2017-06-13T18:57:07.367Z,3.12
2017-06-13T18:59:35.008Z,2.47
2017-06-13T19:02:02.662Z,4.97
2017-06-13T19:04:30.357Z,2.33
2017-06-13T19:06:58.008Z,4.37
2017-06-13T19:09:25.676Z,2.65
2017-06-13T19:11:54.592Z,4.62
2017-06-13T19:14:23.012Z,3.87
2017-06-13T19:16:50.762Z,2.40
2017-06-13T19:19:18.457Z,4.70
2017-06-13T19:21:46.880Z,2.40
2017-06-13T19:24:14.512Z,2.30
2017-06-13T19:26:42.204Z,3.45
2017-06-13T19:29:09.853Z,2.70
2017-06-13T19:31:37.493Z,5.22
2017-06-13T19:34:05.202Z,4.18
2017-06-13T19:36:32.848Z,2.62
2017-06-13T19:39:00.482Z,2.67
2017-06-13T19:41:28.192Z,2.35
2017-06-13T19:43:55.849Z,3.33
2017-06-13T19:46:23.511Z,2.92
2017-06-13T19:48:51.205Z,2.65
2017-06-13T19:51:18.871Z,2.28
2017-06-13T19:53:46.768Z,2.65
2017-06-13T19:56:14.466Z,2.10
2017-06-13T19:58:43.586Z,2.80
2017-06-13T20:01:11.331Z,3.12
2017-06-13T20:03:39.023Z,4.07
2017-06-13T20:06:06.676Z,2.95
2017-06-13T20:08:34.334Z,3.40
2017-06-13T20:11:02.197Z,2.37
2017-06-13T20:13:29.839Z,3.15
2017-06-13T20:15:57.481Z,5.87
2017-06-13T20:18:25.169Z,2.80
2017-06-13T20:20:52.845Z,3.28
2017-06-13T20:23:20.516Z,4.12
2017-06-13T20:25:53.986Z,2.60
2017-06-13T20:28:21.646Z,2.95
2017-06-13T20:30:49.301Z,2.97
2017-06-13T20:33:17.006Z,2.37
2017-06-13T20:35:44.832Z,2.58
2017-06-13T20:38:12.501Z,3.15
2017-06-13T20:40:40.220Z,3.10
2017-06-13T20:43:07.960Z,3.20
2017-06-13T20:45:35.618Z,3.10
2017-06-13T20:48:03.439Z,4.28
2017-06-13T20:50:31.861Z,4.28
2017-06-13T20:52:59.557Z,2.90
2017-06-13T20:55:27.232Z,3.25
2017-06-13T20:57:54.885Z,3.17
2017-06-13T21:00:22.525Z,2.40
2017-06-13T21:02:50.210Z,2.45
2017-06-13T21:05:17.846Z,3.15
2017-06-13T21:07:45.483Z,2.70
2017-06-13T21:10:13.184Z,3.58
2017-06-13T21:12:40.820Z,2.62
2017-06-13T21:15:08.460Z,3.50
2017-06-13T21:17:36.158Z,3.33
2017-06-13T21:20:03.802Z,3.40
2017-06-13T21:22:31.441Z,3.37
2017-06-13T21:24:59.146Z,3.22
2017-06-13T21:27:26.781Z,3.20
2017-06-13T21:29:54.568Z,4.03
2017-06-13T21:32:23.030Z,3.75
2017-06-13T21:34:51.444Z,4.70
2017-06-13T21:37:19.086Z,3.70
2017-06-13T21:39:46.776Z,7.25
2017-06-13T21:42:14.413Z,4.40
2017-06-13T21:44:42.057Z,5.55
2017-06-13T21:47:09.768Z,4.62
2017-06-13T21:49:37.417Z,4.37
2017-06-13T21:52:05.125Z,3.58
2017-06-13T21:54:32.831Z,4.15
2017-06-13T21:57:00.466Z,4.68
2017-06-13T21:59:28.101Z,3.50
2017-06-13T22:01:55.791Z,4.43
2017-06-13T22:04:23.429Z,4.80
2017-06-13T22:06:51.066Z,4.40
2017-06-13T22:09:18.752Z,4.93
2017-06-13T22:11:47.284Z,5.12
2017-06-13T22:14:14.920Z,5.30
2017-06-13T22:16:42.605Z,4.62
2017-06-13T22:19:10.247Z,4.55
2017-06-13T22:21:37.899Z,4.18
2017-06-13T22:24:05.596Z,5.72
2017-06-13T22:26:33.246Z,5.20
2017-06-13T22:29:00.877Z,4.85
2017-06-13T22:31:28.585Z,5.82
2017-06-13T22:33:56.233Z,5.37
2017-06-13T22:36:23.889Z,4.85
2017-06-13T22:38:51.569Z,4.65
2017-06-13T22:41:19.209Z,5.10
2017-06-13T22:43:46.846Z,4.68
2017-06-13T22:46:14.542Z,7.03
2017-06-13T22:48:42.168Z,4.37
2017-06-13T22:51:09.809Z,5.40
2017-06-13T22:53:37.551Z,4.93
2017-06-13T22:56:05.192Z,5.70
2017-06-13T22:58:32.848Z,5.30
2017-06-13T23:01:00.541Z,4.30
2017-06-13T23:03:28.191Z,5.30
2017-06-13T23:05:55.834Z,5.82
2017-06-13T23:08:23.521Z,5.03
2017-06-13T23:10:51.920Z,5.35
2017-06-13T23:13:19.553Z,7.12
2017-06-13T23:15:47.229Z,5.30
2017-06-13T23:18:14.875Z,4.32
2017-06-13T23:20:43.241Z,5.07
2017-06-13T23:23:10.921Z,5.40
2017-06-13T23:25:38.580Z,5.05
2017-06-13T23:28:06.225Z,5.03
2017-06-13T23:30:33.920Z,6.57
2017-06-13T23:33:01.570Z,5.28
2017-06-13T23:35:29.229Z,4.87
2017-06-13T23:37:56.913Z,5.28
2017-06-13T23:40:24.550Z,5.65
2017-06-13T23:42:52.196Z,5.82
2017-06-13T23:45:20.650Z,6.12
2017-06-13T23:47:48.288Z,5.93
2017-06-13T23:50:15.925Z,5.55
2017-06-13T23:52:43.608Z,5.65
2017-06-13T23:55:11.244Z,8.32
2017-06-13T23:57:38.892Z,5.50
